Time;durP1;ratioP1;P1;durP2;ratioP2;P2;SDS_P1;SDS_P2;PMS_P1;PMS_P2;Temp;Humidity;BMP_temperature;BMP_pressure;BME280_temperature;BME280_humidity;BME280_pressure;Samples;Min_cycle;Max_cycle;Signal;HPM_P1;HPM_P2
2022/01/17 00:01:39;;;;;;;27.47;11.60;;;2.80;99.70;;;;;;4993334;28;20979;-65
2022/01/17 00:04:06;;;;;;;26.50;11.67;;;3.00;99.70;;;;;;4993092;28;20450;-66
2022/01/17 00:06:33;;;;;;;25.67;11.20;;;2.90;99.70;;;;;;4993257;28;20801;-66
2022/01/17 00:09:01;;;;;;;27.90;12.00;;;2.90;99.70;;;;;;4992367;28;20478;-66
2022/01/17 00:11:28;;;;;;;28.83;10.73;;;2.90;99.70;;;;;;4993001;28;20457;-66
2022/01/17 00:13:55;;;;;;;25.17;11.73;;;2.90;99.70;;;;;;4992385;28;20442;-65
2022/01/17 00:16:29;;;;;;;24.80;11.27;;;2.90;99.70;;;;;;4993032;28;20454;-65
2022/01/17 00:19:28;;;;;;;25.10;11.10;;;3.00;99.70;;;;;;4992384;28;20979;-66
2022/01/17 00:21:53;;;;;;;23.37;10.60;;;2.90;99.70;;;;;;5007173;28;20808;-65
2022/01/17 00:24:21;;;;;;;26.70;10.83;;;2.90;99.70;;;;;;5012400;28;20450;-66
2022/01/17 00:26:48;;;;;;;24.87;11.10;;;2.90;99.70;;;;;;5011856;28;20874;-66
2022/01/17 00:29:15;;;;;;;23.57;10.43;;;2.90;99.70;;;;;;5011924;28;20489;-65
2022/01/17 00:31:42;;;;;;;25.10;11.27;;;2.90;99.70;;;;;;5012271;28;20981;-65
2022/01/17 00:34:08;;;;;;;24.67;10.93;;;2.90;99.70;;;;;;5012381;28;20453;-65
2022/01/17 00:36:35;;;;;;;23.73;10.83;;;2.90;99.70;;;;;;5012173;28;20500;-65
2022/01/17 00:39:02;;;;;;;24.20;10.70;;;2.80;99.70;;;;;;5011615;28;20820;-65
2022/01/17 00:41:30;;;;;;;26.17;10.37;;;2.90;99.70;;;;;;5012031;28;20869;-65
2022/01/17 00:43:57;;;;;;;24.60;11.23;;;2.80;99.70;;;;;;5012021;28;20457;-65
2022/01/17 00:46:24;;;;;;;23.10;10.07;;;2.90;99.70;;;;;;5012100;28;20442;-65
2022/01/17 00:48:51;;;;;;;26.43;10.90;;;2.80;99.70;;;;;;5011553;28;20838;-66
2022/01/17 00:51:18;;;;;;;26.13;10.73;;;2.80;99.70;;;;;;5011848;28;20453;-65
2022/01/17 00:53:44;;;;;;;23.83;10.57;;;2.80;99.70;;;;;;5011957;28;20446;-65
2022/01/17 00:56:11;;;;;;;24.00;10.47;;;3.00;99.70;;;;;;5011786;28;20453;-65
2022/01/17 00:58:39;;;;;;;27.20;10.87;;;3.00;99.70;;;;;;5011312;28;20465;-65
2022/01/17 01:01:06;;;;;;;25.27;11.13;;;3.00;99.70;;;;;;5011878;28;20445;-65
2022/01/17 01:03:33;;;;;;;22.10;10.20;;;2.90;99.70;;;;;;5011937;28;20828;-65
2022/01/17 01:05:59;;;;;;;25.47;9.93;;;2.90;99.70;;;;;;5011514;28;20457;-66
2022/01/17 01:08:26;;;;;;;22.93;9.70;;;2.90;99.70;;;;;;5011033;28;20515;-66
2022/01/17 01:10:53;;;;;;;20.87;9.50;;;2.80;99.70;;;;;;5011654;28;20485;-65
2022/01/17 01:13:22;;;;;;;22.97;10.17;;;2.80;99.70;;;;;;5011892;28;20441;-66
2022/01/17 01:16:10;;;;;;;22.33;9.87;;;2.80;99.70;;;;;;5011449;28;20964;-65
2022/01/17 01:18:55;;;;;;;21.37;9.40;;;2.70;99.70;;;;;;5011091;28;20465;-66
2022/01/17 01:21:44;;;;;;;22.63;9.70;;;2.70;99.70;;;;;;5001314;28;20809;-66
2022/01/17 01:29:46;;;;;;;27.63;11.00;;;2.90;99.70;;;;;;4991618;28;20476;-67
2022/01/17 01:32:19;;;;;;;29.60;11.13;;;2.90;99.70;;;;;;4991946;28;20490;-67
2022/01/17 01:34:50;;;;;;;26.80;10.87;;;2.90;99.70;;;;;;4992387;28;20454;-67
2022/01/17 01:37:17;;;;;;;26.80;10.97;;;3.00;99.70;;;;;;4991729;28;20471;-67
2022/01/17 01:39:45;;;;;;;23.63;11.50;;;2.90;99.70;;;;;;4991145;28;20454;-67
2022/01/17 01:42:15;;;;;;;28.10;11.87;;;3.00;99.70;;;;;;4991770;28;20948;-67
2022/01/17 01:44:42;;;;;;;26.93;11.67;;;2.90;99.70;;;;;;4991759;28;20451;-67
2022/01/17 01:47:09;;;;;;;28.37;11.30;;;3.00;99.70;;;;;;4991814;28;20481;-67
2022/01/17 01:49:37;;;;;;;23.37;10.63;;;3.00;99.70;;;;;;4991208;28;20482;-67
2022/01/17 01:52:05;;;;;;;29.27;13.07;;;3.30;99.70;;;;;;4991671;28;20453;-67
2022/01/17 01:54:32;;;;;;;29.80;12.50;;;3.30;99.70;;;;;;4991807;28;20823;-67
2022/01/17 01:56:58;;;;;;;27.80;12.90;;;3.20;99.70;;;;;;4991593;28;20859;-67
2022/01/17 01:59:25;;;;;;;32.10;12.70;;;3.10;99.70;;;;;;4991161;28;20443;-65
2022/01/17 02:01:52;;;;;;;28.27;11.57;;;3.00;99.70;;;;;;4991571;28;20450;-67
2022/01/17 02:04:19;;;;;;;32.70;12.83;;;3.20;99.70;;;;;;4991115;28;20465;-67
2022/01/17 02:06:48;;;;;;;27.93;12.57;;;3.00;99.70;;;;;;4991471;28;20450;-67
2022/01/17 02:09:14;;;;;;;30.30;13.07;;;2.90;99.70;;;;;;4990886;28;20833;-67
2022/01/17 02:11:41;;;;;;;28.27;13.20;;;2.80;99.70;;;;;;4991618;28;20447;-67
2022/01/17 02:14:08;;;;;;;29.83;12.20;;;2.80;99.70;;;;;;4991520;28;20470;-67
2022/01/17 02:16:37;;;;;;;29.67;13.07;;;2.70;99.70;;;;;;4991389;28;20446;-67
2022/01/17 02:19:04;;;;;;;25.83;12.90;;;2.70;99.70;;;;;;4990897;28;20476;-67
2022/01/17 02:21:34;;;;;;;32.57;13.60;;;2.60;99.70;;;;;;5002691;28;20844;-65
2022/01/17 02:24:02;;;;;;;29.97;13.10;;;2.90;99.70;;;;;;5011327;28;20456;-65
2022/01/17 02:26:30;;;;;;;28.30;11.73;;;2.80;99.70;;;;;;5010673;28;20445;-67
2022/01/17 02:28:57;;;;;;;30.27;12.70;;;3.30;99.70;;;;;;5010298;28;21002;-67
2022/01/17 02:31:26;;;;;;;32.13;12.97;;;3.50;99.70;;;;;;5010831;28;20859;-65
2022/01/17 02:33:53;;;;;;;32.33;12.77;;;3.10;99.70;;;;;;5010966;28;20456;-66
2022/01/17 02:36:20;;;;;;;30.50;12.50;;;3.20;99.70;;;;;;5011398;28;20869;-65
2022/01/17 02:38:48;;;;;;;30.03;12.40;;;3.00;99.70;;;;;;5013831;28;20462;-65
2022/01/17 02:41:15;;;;;;;28.57;12.60;;;3.20;99.70;;;;;;5014510;28;20633;-67
2022/01/17 02:43:42;;;;;;;34.73;13.40;;;3.10;99.70;;;;;;5014407;28;20446;-65
2022/01/17 02:46:27;;;;;;;32.90;13.60;;;2.90;99.70;;;;;;5014288;28;20503;-65
2022/01/17 02:48:55;;;;;;;27.27;12.33;;;3.00;99.70;;;;;;5013803;28;20474;-65
2022/01/17 02:51:23;;;;;;;28.93;12.03;;;3.00;99.70;;;;;;5014009;28;20488;-68
2022/01/17 02:53:51;;;;;;;25.87;11.43;;;3.10;99.70;;;;;;5014118;28;20458;-68
2022/01/17 02:56:19;;;;;;;28.40;12.10;;;3.10;99.70;;;;;;5014060;28;20445;-68
2022/01/17 02:58:46;;;;;;;26.73;12.07;;;3.10;99.70;;;;;;5013510;28;20461;-65
2022/01/17 03:01:15;;;;;;;31.50;11.97;;;3.10;99.70;;;;;;5013937;28;20456;-65
2022/01/17 03:03:43;;;;;;;28.17;12.60;;;3.10;99.70;;;;;;5013683;28;20461;-67
2022/01/17 03:06:10;;;;;;;28.50;12.17;;;3.00;99.70;;;;;;5014094;28;20458;-68
2022/01/17 03:08:38;;;;;;;28.10;11.90;;;2.90;99.70;;;;;;5013006;28;20909;-67
2022/01/17 03:11:10;;;;;;;29.40;12.30;;;2.90;99.70;;;;;;5013363;28;20485;-65
2022/01/17 03:13:39;;;;;;;27.67;12.20;;;2.90;99.70;;;;;;5013854;28;20934;-65
2022/01/17 03:16:09;;;;;;;28.83;12.47;;;3.00;99.70;;;;;;5013798;28;20445;-67
2022/01/17 03:18:39;;;;;;;27.80;11.97;;;3.00;99.70;;;;;;5013535;28;20515;-67
2022/01/17 03:21:07;;;;;;;31.00;12.57;;;2.90;99.70;;;;;;5013482;28;20473;-67
2022/01/17 03:23:34;;;;;;;29.67;11.90;;;3.00;99.70;;;;;;5013692;28;20449;-65
2022/01/17 03:26:01;;;;;;;27.60;11.87;;;3.00;99.70;;;;;;5012962;28;20445;-65
2022/01/17 03:28:30;;;;;;;25.73;11.13;;;3.00;99.70;;;;;;5012851;28;20473;-65
2022/01/17 03:30:57;;;;;;;31.47;12.80;;;3.20;99.70;;;;;;5013517;28;20487;-65
2022/01/17 03:33:23;;;;;;;26.60;11.33;;;3.40;99.70;;;;;;5013327;28;20445;-64
2022/01/17 03:35:51;;;;;;;30.43;11.93;;;3.20;99.70;;;;;;5013301;28;20828;-65
2022/01/17 03:38:19;;;;;;;29.00;11.67;;;3.10;99.70;;;;;;5012849;28;20484;-65
2022/01/17 03:40:47;;;;;;;25.83;11.80;;;3.10;99.70;;;;;;5013416;28;20449;-65
2022/01/17 03:43:14;;;;;;;24.70;11.10;;;3.10;99.70;;;;;;5013272;28;20445;-67
2022/01/17 03:45:45;;;;;;;23.57;10.80;;;3.00;99.70;;;;;;5013059;28;20469;-67
2022/01/17 03:48:12;;;;;;;22.43;9.97;;;3.00;99.70;;;;;;5011324;28;20493;-66
2022/01/17 03:50:39;;;;;;;24.27;10.50;;;3.00;99.70;;;;;;5013108;28;20477;-67
2022/01/17 03:53:06;;;;;;;24.53;10.87;;;3.00;99.70;;;;;;5012994;28;20449;-68
2022/01/17 03:55:34;;;;;;;24.90;10.40;;;3.00;99.70;;;;;;5012996;28;20450;-68
2022/01/17 03:58:01;;;;;;;26.20;10.97;;;3.00;99.70;;;;;;5012202;28;20473;-65
2022/01/17 04:00:31;;;;;;;27.13;10.93;;;3.00;99.70;;;;;;5012921;28;20465;-67
2022/01/17 04:03:02;;;;;;;26.10;11.10;;;2.90;99.70;;;;;;5012842;28;20843;-68
2022/01/17 04:05:29;;;;;;;22.83;10.50;;;3.00;99.70;;;;;;5012772;28;20453;-67
2022/01/17 04:07:55;;;;;;;27.27;10.90;;;2.90;99.70;;;;;;5012136;28;20492;-65
2022/01/17 04:10:22;;;;;;;27.37;11.60;;;2.80;99.70;;;;;;5012669;28;20489;-65
2022/01/17 04:12:49;;;;;;;24.77;10.90;;;2.80;99.70;;;;;;5012639;28;20445;-67
2022/01/17 04:15:16;;;;;;;26.40;11.60;;;2.80;99.70;;;;;;5012563;28;20449;-66
2022/01/17 04:17:43;;;;;;;27.73;12.07;;;2.90;99.70;;;;;;5012345;28;20561;-65
2022/01/17 04:20:24;;;;;;;26.70;11.00;;;2.80;99.70;;;;;;5011747;28;20541;-67
2022/01/17 04:22:53;;;;;;;28.63;11.40;;;2.70;99.70;;;;;;4992884;28;20978;-65
2022/01/17 04:25:20;;;;;;;30.73;12.73;;;2.60;99.70;;;;;;4992788;28;20458;-65
2022/01/17 04:27:48;;;;;;;28.10;11.73;;;2.90;99.70;;;;;;4992014;28;20470;-64
2022/01/17 04:30:15;;;;;;;25.27;10.97;;;2.80;99.70;;;;;;4993299;28;20481;-64
2022/01/17 04:32:42;;;;;;;32.63;11.40;;;2.80;99.70;;;;;;4992825;28;20442;-66
2022/01/17 04:35:11;;;;;;;25.63;11.70;;;2.80;99.70;;;;;;4992747;28;20450;-65
2022/01/17 04:37:39;;;;;;;33.37;12.50;;;2.80;99.70;;;;;;4992455;28;20477;-64
2022/01/17 04:40:06;;;;;;;28.60;12.00;;;2.80;99.70;;;;;;4992225;28;20948;-65
2022/01/17 04:42:34;;;;;;;27.33;11.53;;;2.70;99.70;;;;;;4992662;28;20943;-67
2022/01/17 04:47:47;;;;;;;28.77;11.83;;;2.60;99.70;;;;;;4991853;28;20477;-66
2022/01/17 04:50:17;;;;;;;28.73;12.57;;;2.50;99.70;;;;;;4992278;28;20536;-65
2022/01/17 04:52:44;;;;;;;28.43;12.00;;;2.60;99.70;;;;;;4992307;28;20454;-66
2022/01/17 04:55:14;;;;;;;32.03;12.10;;;2.50;99.70;;;;;;4992256;28;20944;-66
2022/01/17 04:57:41;;;;;;;27.73;11.87;;;2.50;99.70;;;;;;4993069;28;20505;-66
2022/01/17 05:00:11;;;;;;;29.23;11.47;;;2.60;99.70;;;;;;4991665;28;20454;-65
2022/01/17 05:02:37;;;;;;;28.77;11.27;;;2.60;99.70;;;;;;4996718;28;20459;-67
2022/01/17 05:05:05;;;;;;;28.27;11.70;;;2.60;99.70;;;;;;5007696;28;20445;-67
2022/01/17 05:07:34;;;;;;;28.50;11.90;;;2.50;99.70;;;;;;5008622;28;21200;-67
2022/01/17 05:10:01;;;;;;;31.13;11.80;;;2.60;99.70;;;;;;4992556;28;20511;-65
2022/01/17 05:12:28;;;;;;;27.90;11.50;;;2.60;99.70;;;;;;5001645;28;20464;-65
2022/01/17 05:14:55;;;;;;;26.70;11.20;;;2.60;99.70;;;;;;5011792;28;20481;-68
2022/01/17 05:17:39;;;;;;;28.40;11.67;;;2.70;99.70;;;;;;4996115;28;20529;-67
2022/01/17 05:20:08;;;;;;;25.60;11.73;;;2.60;99.70;;;;;;4992037;28;20450;-67
2022/01/17 05:22:38;;;;;;;29.90;11.53;;;2.60;99.70;;;;;;5007263;28;20445;-65
2022/01/17 05:25:09;;;;;;;24.63;11.47;;;2.60;99.70;;;;;;5011601;28;20488;-65
2022/01/17 05:27:36;;;;;;;29.10;11.00;;;2.70;99.70;;;;;;4992995;28;20524;-67
2022/01/17 05:30:06;;;;;;;25.40;11.13;;;2.70;99.70;;;;;;4991397;28;20834;-68
2022/01/17 05:32:33;;;;;;;24.83;10.93;;;2.70;99.70;;;;;;5005022;28;20466;-66
2022/01/17 05:34:59;;;;;;;30.33;12.70;;;2.70;99.70;;;;;;5001293;28;20458;-65
2022/01/17 05:37:26;;;;;;;35.70;13.10;;;2.70;99.70;;;;;;5000751;28;20908;-68
2022/01/17 05:39:54;;;;;;;27.20;11.63;;;2.70;99.70;;;;;;5002548;28;20492;-68
2022/01/17 05:42:21;;;;;;;26.80;11.43;;;2.70;99.70;;;;;;5001862;28;20508;-65
2022/01/17 05:44:48;;;;;;;26.10;11.03;;;2.70;99.70;;;;;;5002912;28;20476;-65
2022/01/17 05:47:15;;;;;;;24.97;10.47;;;2.70;99.70;;;;;;5002078;28;20541;-65
2022/01/17 05:49:42;;;;;;;27.83;10.90;;;2.60;99.70;;;;;;5001403;28;20461;-65
2022/01/17 05:52:09;;;;;;;27.27;11.37;;;2.60;99.70;;;;;;4998808;28;20927;-65
2022/01/17 05:54:36;;;;;;;23.97;10.57;;;2.60;99.70;;;;;;5001211;28;20461;-66
2022/01/17 05:57:05;;;;;;;24.67;10.10;;;2.60;99.70;;;;;;5003012;28;20446;-65
2022/01/17 05:59:31;;;;;;;25.50;10.83;;;2.60;99.70;;;;;;4999979;28;20466;-66
2022/01/17 06:01:58;;;;;;;25.60;11.03;;;2.60;99.70;;;;;;5001233;28;20450;-66
2022/01/17 06:04:25;;;;;;;26.27;11.30;;;2.60;99.70;;;;;;5000976;28;20484;-66
2022/01/17 06:06:52;;;;;;;26.33;10.80;;;2.70;99.70;;;;;;5004954;28;20473;-65
2022/01/17 06:09:19;;;;;;;26.00;10.73;;;2.80;99.70;;;;;;4998338;28;20462;-64
2022/01/17 06:11:46;;;;;;;26.90;10.47;;;2.80;99.70;;;;;;4998515;28;21029;-66
2022/01/17 06:14:17;;;;;;;23.20;10.50;;;2.80;99.70;;;;;;4994490;28;20519;-65
2022/01/17 06:16:43;;;;;;;25.00;10.20;;;2.70;99.70;;;;;;5006122;28;20444;-66
2022/01/17 06:19:10;;;;;;;25.90;10.93;;;2.70;99.70;;;;;;5001075;28;21043;-66
2022/01/17 06:21:37;;;;;;;26.30;10.87;;;2.70;99.70;;;;;;5012528;28;20441;-66
2022/01/17 06:24:05;;;;;;;23.10;10.00;;;2.70;99.70;;;;;;5012826;28;20449;-66
2022/01/17 06:26:33;;;;;;;23.23;9.53;;;2.70;99.70;;;;;;5012605;28;20906;-65
2022/01/17 06:29:00;;;;;;;22.60;9.53;;;2.70;99.70;;;;;;4999740;28;20466;-66
2022/01/17 06:31:28;;;;;;;23.57;9.13;;;2.70;99.70;;;;;;5010911;28;20488;-65
2022/01/17 06:33:54;;;;;;;23.63;9.67;;;2.70;99.70;;;;;;5013341;28;20825;-65
2022/01/17 06:36:21;;;;;;;19.27;8.10;;;2.70;99.70;;;;;;4995997;28;20461;-65
2022/01/17 06:38:49;;;;;;;20.80;8.80;;;2.70;99.70;;;;;;4993093;28;20999;-66
2022/01/17 06:41:16;;;;;;;21.50;9.10;;;2.70;99.70;;;;;;4994197;28;20442;-65
2022/01/17 06:43:43;;;;;;;19.00;8.47;;;2.70;99.70;;;;;;4993626;28;20442;-67
2022/01/17 06:46:10;;;;;;;20.10;8.83;;;2.80;99.70;;;;;;4993900;28;20458;-66
2022/01/17 06:48:38;;;;;;;18.17;8.23;;;2.80;99.70;;;;;;4993789;28;20489;-67
2022/01/17 06:51:05;;;;;;;21.27;8.23;;;2.80;99.70;;;;;;4994657;28;20478;-67
2022/01/17 06:53:32;;;;;;;21.70;9.50;;;2.80;99.70;;;;;;4994559;28;20450;-66
2022/01/17 06:55:59;;;;;;;24.53;10.30;;;2.70;99.70;;;;;;4994015;28;20830;-66
2022/01/17 06:58:27;;;;;;;20.47;8.93;;;2.90;99.70;;;;;;4994029;28;20557;-66
2022/01/17 07:00:54;;;;;;;21.87;9.13;;;2.90;99.70;;;;;;4994402;28;20443;-66
2022/01/17 07:03:21;;;;;;;20.30;8.47;;;2.80;99.70;;;;;;4994567;28;20806;-66
2022/01/17 07:05:49;;;;;;;20.57;8.53;;;2.90;99.70;;;;;;4994665;28;20454;-66
2022/01/17 07:08:15;;;;;;;20.60;9.63;;;2.90;99.70;;;;;;4993850;28;20466;-66
2022/01/17 07:10:42;;;;;;;21.80;9.40;;;2.80;99.70;;;;;;4994191;28;20453;-66
2022/01/17 07:13:09;;;;;;;21.77;8.40;;;2.80;99.70;;;;;;4994221;28;20450;-66
2022/01/17 07:15:35;;;;;;;28.37;10.30;;;2.90;99.70;;;;;;4994344;28;20442;-66
2022/01/17 07:18:02;;;;;;;22.40;9.30;;;2.90;99.70;;;;;;4993600;28;20465;-66
2022/01/17 07:20:30;;;;;;;22.37;8.97;;;2.90;99.70;;;;;;4994165;28;20485;-66
2022/01/17 07:22:58;;;;;;;21.90;9.53;;;2.90;99.70;;;;;;4994070;28;20517;-66
2022/01/17 07:25:24;;;;;;;20.77;8.63;;;3.00;99.70;;;;;;4994477;28;20446;-66
2022/01/17 07:27:51;;;;;;;21.13;8.73;;;3.10;99.70;;;;;;4992832;28;20469;-66
2022/01/17 07:30:18;;;;;;;21.03;8.47;;;3.10;99.70;;;;;;4993977;28;20461;-66
2022/01/17 07:32:45;;;;;;;39.23;9.70;;;3.20;99.70;;;;;;4993057;28;20871;-66
2022/01/17 07:35:11;;;;;;;17.60;7.70;;;3.20;99.70;;;;;;4993803;28;21006;-65
2022/01/17 07:37:38;;;;;;;18.70;8.80;;;3.50;99.70;;;;;;4993759;28;20462;-64
2022/01/17 07:40:08;;;;;;;19.37;9.20;;;3.60;99.70;;;;;;4993553;28;20447;-66
2022/01/17 07:42:35;;;;;;;19.50;8.40;;;3.60;99.70;;;;;;4993754;28;20446;-65
2022/01/17 07:45:10;;;;;;;17.77;8.40;;;3.80;99.70;;;;;;4993564;28;20454;-66
2022/01/17 07:47:43;;;;;;;16.90;7.10;;;3.90;99.70;;;;;;4994101;28;20501;-65
2022/01/17 07:50:14;;;;;;;13.90;6.70;;;3.80;99.70;;;;;;5011219;28;20454;-65
2022/01/17 07:52:41;;;;;;;16.10;6.83;;;3.80;99.70;;;;;;4996589;28;20493;-66
2022/01/17 07:55:09;;;;;;;15.07;6.60;;;3.80;99.70;;;;;;4994729;28;20450;-66
2022/01/17 07:57:37;;;;;;;14.97;6.30;;;3.80;99.70;;;;;;4995212;28;20466;-66
2022/01/17 08:00:06;;;;;;;13.37;5.93;;;3.90;99.70;;;;;;4994041;28;20457;-66
2022/01/17 08:02:33;;;;;;;15.47;7.53;;;3.90;99.70;;;;;;4995468;28;20445;-65
2022/01/17 08:05:00;;;;;;;17.40;8.50;;;3.90;99.70;;;;;;4994356;28;20454;-65
2022/01/17 08:07:26;;;;;;;18.10;7.40;;;3.80;99.70;;;;;;4995381;28;20985;-66
2022/01/17 08:09:53;;;;;;;19.87;8.60;;;3.90;99.70;;;;;;4993633;28;20450;-66
2022/01/17 08:12:21;;;;;;;16.40;7.97;;;3.90;99.70;;;;;;4995258;28;20486;-66
2022/01/17 08:14:48;;;;;;;15.73;7.40;;;4.00;99.70;;;;;;4994266;28;20804;-65
2022/01/17 08:17:15;;;;;;;17.43;6.87;;;4.20;99.70;;;;;;5006413;28;20466;-66
2022/01/17 08:19:41;;;;;;;15.87;7.20;;;4.10;99.70;;;;;;4993975;28;20946;-66
2022/01/17 08:22:09;;;;;;;13.80;6.60;;;4.00;99.70;;;;;;5005185;28;20962;-65
2022/01/17 08:24:36;;;;;;;16.03;6.47;;;4.00;99.70;;;;;;5010400;28;20503;-66
2022/01/17 08:27:04;;;;;;;15.83;6.20;;;4.00;99.70;;;;;;5009762;28;20947;-65
2022/01/17 08:29:34;;;;;;;15.70;6.40;;;4.10;99.70;;;;;;5009036;28;20449;-66
2022/01/17 08:32:05;;;;;;;14.00;6.70;;;4.10;99.70;;;;;;5010806;28;20477;-65
2022/01/17 08:34:31;;;;;;;12.03;6.20;;;4.10;99.70;;;;;;5009162;28;20464;-66
2022/01/17 08:36:59;;;;;;;13.93;6.60;;;4.20;99.70;;;;;;5010564;28;20453;-66
2022/01/17 08:39:26;;;;;;;15.03;6.10;;;4.30;99.70;;;;;;5008619;28;20902;-66
2022/01/17 08:41:53;;;;;;;11.93;5.53;;;4.30;99.70;;;;;;5010664;28;20441;-65
2022/01/17 08:44:20;;;;;;;14.70;6.00;;;4.20;99.70;;;;;;5008982;28;20504;-66
2022/01/17 08:46:48;;;;;;;12.73;5.70;;;4.30;99.70;;;;;;5010360;28;20449;-65
2022/01/17 08:49:16;;;;;;;12.80;5.70;;;4.40;99.70;;;;;;4996137;28;20458;-66
2022/01/17 08:51:43;;;;;;;11.63;5.57;;;4.40;99.70;;;;;;5000506;28;20481;-66
2022/01/17 08:54:10;;;;;;;11.63;6.10;;;4.30;99.70;;;;;;4996695;28;20450;-66
2022/01/17 08:56:37;;;;;;;12.80;5.77;;;4.40;99.70;;;;;;4993590;28;20496;-66
2022/01/17 08:59:03;;;;;;;12.50;5.40;;;4.40;99.70;;;;;;4994029;28;21006;-66
2022/01/17 09:01:30;;;;;;;10.57;5.17;;;4.60;99.70;;;;;;4993359;28;20450;-66
2022/01/17 09:03:59;;;;;;;13.93;6.40;;;4.70;99.70;;;;;;4994375;28;20843;-66
2022/01/17 09:06:26;;;;;;;14.23;5.97;;;4.70;99.70;;;;;;4993344;28;20928;-66
2022/01/17 09:08:53;;;;;;;13.13;6.77;;;4.50;99.70;;;;;;4993767;28;20467;-66
2022/01/17 09:11:20;;;;;;;13.83;6.40;;;4.60;99.70;;;;;;4993026;28;20451;-66
2022/01/17 09:13:48;;;;;;;11.97;5.70;;;4.60;99.70;;;;;;4993476;28;20459;-66
2022/01/17 09:16:15;;;;;;;13.63;5.80;;;4.60;99.70;;;;;;4993794;28;20489;-66
2022/01/17 09:18:42;;;;;;;14.30;6.00;;;4.60;99.70;;;;;;4992608;28;21053;-66
2022/01/17 09:21:10;;;;;;;13.50;6.10;;;4.60;99.70;;;;;;4994353;28;20450;-66
2022/01/17 09:23:38;;;;;;;13.53;6.07;;;4.70;99.70;;;;;;4993239;28;20469;-66
2022/01/17 09:26:04;;;;;;;10.47;5.00;;;4.70;99.70;;;;;;4993330;28;20477;-66
2022/01/17 09:28:32;;;;;;;12.77;5.73;;;4.90;99.70;;;;;;4991535;28;20487;-66
2022/01/17 09:30:58;;;;;;;13.17;6.43;;;5.10;99.70;;;;;;4994329;28;20469;-67
2022/01/17 09:33:25;;;;;;;18.70;7.60;;;5.00;99.70;;;;;;4992840;28;20485;-66
2022/01/17 09:35:53;;;;;;;17.40;6.60;;;5.20;99.70;;;;;;4994202;28;20453;-65
2022/01/17 09:38:21;;;;;;;11.40;6.30;;;5.30;99.70;;;;;;4992421;28;20840;-65
2022/01/17 09:40:48;;;;;;;17.37;7.67;;;5.20;99.70;;;;;;4993970;28;20969;-65
2022/01/17 09:43:15;;;;;;;16.37;7.20;;;5.00;99.70;;;;;;4992849;28;20447;-66
2022/01/17 09:45:42;;;;;;;14.70;6.00;;;5.10;99.70;;;;;;4994020;28;21381;-66
2022/01/17 09:48:09;;;;;;;14.60;6.60;;;5.10;99.70;;;;;;5002118;28;20477;-66
2022/01/17 09:50:46;;;;;;;12.93;6.30;;;5.20;99.70;;;;;;5012052;28;20519;-66
2022/01/17 09:53:18;;;;;;;13.50;6.00;;;5.20;99.70;;;;;;5013724;28;20626;-65
2022/01/17 09:55:47;;;;;;;12.60;5.63;;;5.20;99.70;;;;;;5011933;28;20454;-66
2022/01/17 09:58:15;;;;;;;14.80;6.53;;;5.20;99.70;;;;;;5013009;28;20481;-65
2022/01/17 10:00:44;;;;;;;14.10;5.77;;;5.10;99.70;;;;;;5012000;28;21169;-66
2022/01/17 10:03:16;;;;;;;10.90;5.67;;;5.10;99.70;;;;;;5013021;28;20445;-65
2022/01/17 10:05:44;;;;;;;11.63;5.43;;;5.10;99.70;;;;;;5011889;28;20462;-65
2022/01/17 10:08:15;;;;;;;12.50;5.60;;;5.20;99.70;;;;;;5012922;28;20477;-66
2022/01/17 10:10:45;;;;;;;10.83;5.33;;;5.20;99.70;;;;;;5011774;28;20515;-66
2022/01/17 10:13:18;;;;;;;12.87;6.00;;;5.30;99.70;;;;;;5013348;28;20484;-66
2022/01/17 10:15:59;;;;;;;12.07;5.07;;;5.40;99.70;;;;;;5011693;28;20934;-66
2022/01/17 10:18:29;;;;;;;9.80;5.03;;;5.60;99.70;;;;;;5012928;28;20477;-66
2022/01/17 10:21:00;;;;;;;14.10;5.67;;;5.60;99.70;;;;;;5011655;28;20500;-66
2022/01/17 10:23:44;;;;;;;9.43;4.80;;;5.40;99.70;;;;;;5013456;28;20485;-66
2022/01/17 10:26:25;;;;;;;10.77;5.00;;;5.40;99.70;;;;;;5011044;28;20449;-66
2022/01/17 10:29:14;;;;;;;10.50;5.47;;;5.50;99.70;;;;;;5011540;28;20978;-66
2022/01/17 10:37:10;;;;;;;11.80;5.00;;;5.60;99.70;;;;;;4996679;28;20449;-66
2022/01/17 10:39:37;;;;;;;11.87;4.50;;;5.70;99.70;;;;;;4995839;28;20453;-66
2022/01/17 10:42:22;;;;;;;10.30;4.60;;;5.60;99.70;;;;;;4995909;28;20978;-66
2022/01/17 10:44:51;;;;;;;9.73;4.77;;;5.70;99.70;;;;;;4996084;28;20453;-66
2022/01/17 10:47:23;;;;;;;10.07;5.33;;;5.80;99.70;;;;;;5008497;28;20535;-66
2022/01/17 10:49:52;;;;;;;12.90;4.80;;;5.80;99.70;;;;;;4995352;28;20820;-66
2022/01/17 10:52:34;;;;;;;11.53;4.90;;;5.80;99.70;;;;;;4996996;28;21023;-66
2022/01/17 10:55:05;;;;;;;9.90;4.57;;;5.70;99.70;;;;;;4995759;28;20958;-66
2022/01/17 10:57:35;;;;;;;11.93;5.00;;;5.70;99.70;;;;;;5021886;23;20552;-66
2022/01/17 11:00:09;;;;;;;9.60;5.00;;;5.60;99.70;;;;;;5011124;28;20685;-66
2022/01/17 11:02:37;;;;;;;9.93;5.17;;;5.50;99.70;;;;;;5010638;28;20508;-64
2022/01/17 11:05:10;;;;;;;10.80;4.83;;;5.60;99.70;;;;;;5012412;28;20871;-64
2022/01/17 11:07:41;;;;;;;11.03;5.23;;;5.50;99.70;;;;;;5006708;28;20478;-66
2022/01/17 11:10:15;;;;;;;9.40;4.73;;;5.40;99.70;;;;;;4992457;28;20438;-64
2022/01/17 11:12:42;;;;;;;12.17;5.63;;;5.40;99.70;;;;;;4991056;28;21122;-66
2022/01/17 11:15:11;;;;;;;15.07;6.10;;;5.30;99.70;;;;;;4992724;28;20451;-66
2022/01/17 11:17:46;;;;;;;14.43;6.27;;;5.20;99.70;;;;;;4989434;28;20470;-67
2022/01/17 11:20:13;;;;;;;15.90;7.73;;;5.20;99.70;;;;;;4984324;28;20821;-66
2022/01/17 11:22:42;;;;;;;14.57;7.10;;;5.20;99.70;;;;;;4976368;28;20822;-64
2022/01/17 11:25:11;;;;;;;13.20;6.37;;;5.20;99.70;;;;;;4975898;28;20455;-66
2022/01/17 11:27:39;;;;;;;16.27;7.90;;;5.10;99.70;;;;;;4976044;28;20483;-62
2022/01/17 11:30:07;;;;;;;19.70;8.57;;;5.20;99.70;;;;;;4975025;28;20447;-64
2022/01/17 11:32:35;;;;;;;18.60;8.10;;;5.10;99.70;;;;;;4976700;28;20482;-66
2022/01/17 11:35:04;;;;;;;19.43;8.60;;;5.10;99.70;;;;;;4972231;28;20467;-65
2022/01/17 11:37:34;;;;;;;18.73;8.13;;;5.20;99.70;;;;;;4970299;28;20856;-64
2022/01/17 11:40:01;;;;;;;18.57;8.00;;;5.20;99.70;;;;;;4970466;28;20454;-64
2022/01/17 11:42:32;;;;;;;17.83;8.17;;;5.10;99.70;;;;;;4970854;28;20876;-62
2022/01/17 11:45:00;;;;;;;13.10;6.70;;;5.20;99.70;;;;;;4972725;28;20462;-65
2022/01/17 11:47:50;;;;;;;17.70;7.47;;;5.30;99.70;;;;;;4974632;28;20491;-64
2022/01/17 11:50:34;;;;;;;16.07;7.60;;;5.20;99.70;;;;;;4969769;28;20478;-64
2022/01/17 11:53:48;;;;;;;15.30;6.90;;;5.30;99.70;;;;;;4963278;28;20498;-64
2022/01/17 11:56:49;;;;;;;15.13;7.20;;;5.30;99.70;;;;;;4990107;28;21092;-64
2022/01/17 11:59:43;;;;;;;19.17;8.27;;;5.20;99.70;;;;;;4989494;28;20482;-64
2022/01/17 12:02:21;;;;;;;21.77;9.40;;;5.10;99.70;;;;;;4991098;28;20457;-64
2022/01/17 12:05:31;;;;;;;19.00;8.80;;;5.10;99.70;;;;;;4964626;28;20454;-64
2022/01/17 12:07:59;;;;;;;16.60;8.20;;;5.00;99.70;;;;;;4971212;28;20475;-63
2022/01/17 12:10:27;;;;;;;18.37;8.40;;;5.00;99.70;;;;;;4990421;28;20442;-64
2022/01/17 12:13:41;;;;;;;17.40;7.97;;;5.00;99.70;;;;;;4990030;28;20482;-66
2022/01/17 12:16:14;;;;;;;14.47;7.00;;;5.10;99.70;;;;;;4975556;28;20538;-64
2022/01/17 12:18:43;;;;;;;15.80;7.07;;;5.00;99.70;;;;;;4974203;28;20478;-63
2022/01/17 12:21:28;;;;;;;14.70;6.87;;;5.00;99.70;;;;;;4975612;28;20455;-65
2022/01/17 12:24:31;;;;;;;12.00;6.00;;;5.10;99.70;;;;;;4975876;28;20542;-64
2022/01/17 12:27:14;;;;;;;12.90;6.83;;;5.20;99.70;;;;;;4967651;28;20443;-64
2022/01/17 12:29:46;;;;;;;16.70;8.60;;;5.30;99.70;;;;;;4961470;28;20456;-64
2022/01/17 12:32:47;;;;;;;13.37;6.57;;;5.60;99.70;;;;;;4975555;28;20458;-64
2022/01/17 12:35:17;;;;;;;9.00;4.80;;;5.50;99.70;;;;;;4967371;28;20448;-64
2022/01/17 12:37:46;;;;;;;21.17;11.60;;;5.50;99.70;;;;;;4975361;28;20475;-65
2022/01/17 12:40:17;;;;;;;12.33;5.90;;;5.50;99.70;;;;;;4974231;28;20447;-64
2022/01/17 12:42:57;;;;;;;10.43;4.80;;;5.50;99.70;;;;;;4975773;28;20450;-64
2022/01/17 12:45:27;;;;;;;9.13;5.10;;;5.60;99.70;;;;;;4974076;28;20439;-64
2022/01/17 12:47:55;;;;;;;8.43;4.50;;;5.50;99.70;;;;;;4989128;28;20832;-63
2022/01/17 12:50:26;;;;;;;9.43;4.73;;;5.40;99.70;;;;;;4990744;28;20446;-64
2022/01/17 12:52:54;;;;;;;10.40;4.80;;;5.30;99.70;;;;;;4989212;28;21031;-64
2022/01/17 12:55:24;;;;;;;9.30;4.47;;;5.30;99.70;;;;;;4990790;28;20453;-64
2022/01/17 12:57:50;;;;;;;9.47;5.90;;;5.30;99.70;;;;;;4989036;28;20478;-64
2022/01/17 13:00:21;;;;;;;9.50;4.90;;;5.40;99.70;;;;;;4979084;28;20447;-65
2022/01/17 13:02:50;;;;;;;8.93;4.43;;;5.60;99.70;;;;;;4989828;28;20443;-65
2022/01/17 13:05:22;;;;;;;7.40;4.17;;;5.60;99.70;;;;;;4978361;28;20443;-64
2022/01/17 13:07:49;;;;;;;10.33;4.80;;;5.60;99.70;;;;;;4976787;28;20463;-64
2022/01/17 13:10:15;;;;;;;13.10;5.00;;;5.60;99.70;;;;;;4973701;28;20917;-65